Time;durP1;ratioP1;P1;durP2;ratioP2;P2;SDS_P1;SDS_P2;PMS_P1;PMS_P2;Temp;Humidity;BMP_temperature;BMP_pressure;BME280_temperature;BME280_humidity;BME280_pressure;Samples;Min_cycle;Max_cycle;Signal;HPM_P1;HPM_P2
2022/10/28 00:00:07;;;;;;;9.93;6.10;;;;;;;14.26;98.89;98891.06;5137905;23;20600;-92
2022/10/28 00:02:10;;;;;;;12.37;6.73;;;;;;;14.24;98.91;98888.53;5138262;23;20586;-91
2022/10/28 00:04:13;;;;;;;16.73;6.83;;;;;;;14.25;98.68;98884.97;5190820;22;21101;-92
2022/10/28 00:06:19;;;;;;;8.63;5.80;;;;;;;14.24;99.21;98890.34;5162395;23;20609;-91
2022/10/28 00:08:22;;;;;;;8.33;6.23;;;;;;;14.24;98.27;98887.72;5163558;22;20598;-92
2022/10/28 00:10:25;;;;;;;13.13;6.57;;;;;;;14.24;98.40;98885.09;5139279;23;20642;-91
2022/10/28 00:12:30;;;;;;;13.23;6.93;;;;;;;14.23;99.50;98886.84;5188633;22;21050;-92
2022/10/28 00:14:33;;;;;;;10.50;6.33;;;;;;;14.24;98.83;98885.09;5163335;23;21137;-92
2022/10/28 00:16:37;;;;;;;13.33;6.43;;;;;;;14.27;100.00;98882.25;5163176;23;20579;-92
2022/10/28 00:18:41;;;;;;;14.33;7.00;;;;;;;14.26;99.15;98877.94;5190424;22;20610;-92
2022/10/28 00:20:44;;;;;;;13.97;7.00;;;;;;;14.26;99.82;98870.06;5138187;23;20633;-91
2022/10/28 00:22:47;;;;;;;11.00;6.47;;;;;;;14.26;99.09;98872.69;5137410;23;20579;-92
2022/10/28 00:24:50;;;;;;;16.23;7.00;;;;;;;14.24;98.46;98871.97;5136204;23;20918;-91
2022/10/28 00:26:53;;;;;;;15.97;6.90;;;;;;;14.24;98.56;98869.34;5137181;23;21007;-92
2022/10/28 00:28:59;;;;;;;12.67;6.73;;;;;;;14.22;99.14;98872.06;5138630;23;20603;-92
2022/10/28 00:31:04;;;;;;;10.40;6.57;;;;;;;14.23;98.83;98878.16;5137802;23;20576;-92
2022/10/28 00:33:07;;;;;;;13.80;6.30;;;;;;;14.23;100.00;98871.09;5139702;23;20588;-92
2022/10/28 00:35:11;;;;;;;9.50;6.77;;;;;;;14.23;100.00;98868.50;5139643;23;21425;-91
2022/10/28 00:37:14;;;;;;;12.07;6.70;;;;;;;14.25;99.67;98877.09;5139554;23;20579;-92
2022/10/28 00:39:19;;;;;;;10.30;5.80;;;;;;;14.23;99.45;98872.91;5164370;23;20600;-92
2022/10/28 00:41:24;;;;;;;13.03;8.23;;;;;;;14.22;100.00;98869.44;5138874;23;20662;-91
2022/10/28 00:43:35;;;;;;;11.97;6.80;;;;;;;14.20;100.00;98870.50;5140516;23;20666;-91
2022/10/28 00:45:39;;;;;;;8.47;5.80;;;;;;;14.19;99.76;98874.91;5191010;22;20574;-91
2022/10/28 00:47:50;;;;;;;11.90;6.40;;;;;;;14.17;99.49;98882.03;5164313;23;21490;-92
2022/10/28 00:49:56;;;;;;;9.90;5.70;;;;;;;14.14;99.58;98877.00;5164616;23;20575;-92
2022/10/28 00:52:02;;;;;;;12.10;5.80;;;;;;;14.12;99.21;98883.31;5140075;23;20576;-92
2022/10/28 00:54:06;;;;;;;13.17;6.40;;;;;;;14.11;99.49;98873.75;5163804;23;20636;-91
2022/10/28 00:56:10;;;;;;;9.87;6.70;;;;;;;14.12;99.85;98878.06;5138748;23;20579;-92
2022/10/28 00:58:14;;;;;;;15.27;6.00;;;;;;;14.09;99.75;98862.53;5164616;23;21016;-92
2022/10/28 01:00:17;;;;;;;16.63;6.70;;;;;;;14.08;98.65;98868.72;5139083;23;20571;-92
2022/10/28 01:02:22;;;;;;;9.90;6.13;;;;;;;14.02;98.71;98861.25;5165462;23;21155;-91
2022/10/28 01:04:25;;;;;;;12.47;6.60;;;;;;;14.03;98.72;98862.94;5163917;23;20571;-92
2022/10/28 01:06:29;;;;;;;9.27;6.10;;;;;;;14.01;99.09;98854.34;5139748;23;20583;-92
2022/10/28 01:08:32;;;;;;;10.93;6.40;;;;;;;14.01;98.72;98864.84;5139940;23;20648;-91
2022/10/28 01:11:01;;;;;;;11.83;6.27;;;;;;;14.01;99.08;98869.22;5139518;23;21138;-92
2022/10/28 01:13:11;;;;;;;11.30;6.47;;;;;;;14.00;100.00;98868.41;5115430;23;20637;-92
2022/10/28 01:15:23;;;;;;;12.20;6.90;;;;;;;14.01;99.03;98870.09;5164053;23;21101;-92
2022/10/28 01:17:44;;;;;;;10.97;6.63;;;;;;;14.02;100.00;98861.25;5139914;23;20678;-91
2022/10/28 01:20:41;;;;;;;11.93;6.57;;;;;;;14.02;99.01;98870.91;5139797;23;20645;-92
2022/10/28 01:22:51;;;;;;;12.33;6.60;;;;;;;14.00;100.00;98865.78;5065356;23;20619;-92
2022/10/28 01:25:11;;;;;;;9.17;6.30;;;;;;;14.02;100.00;98874.38;5121960;23;20594;-92
2022/10/28 01:27:43;;;;;;;10.90;6.90;;;;;;;14.03;100.00;98875.22;5139431;23;20617;-92
2022/10/28 01:29:59;;;;;;;9.17;7.23;;;;;;;14.03;100.00;98870.81;5133367;23;20587;-92
2022/10/28 01:32:10;;;;;;;12.33;6.30;;;;;;;14.04;100.00;98877.72;5164819;23;20573;-90
2022/10/28 01:34:20;;;;;;;11.93;6.60;;;;;;;14.03;100.00;98868.19;5139682;23;20678;-92
2022/10/28 01:36:29;;;;;;;23.80;8.03;;;;;;;14.03;100.00;98868.19;5190949;22;20553;-92
2022/10/28 01:38:35;;;;;;;8.67;6.30;;;;;;;14.02;100.00;98874.38;5137972;23;20598;-92
2022/10/28 01:40:43;;;;;;;11.80;6.17;;;;;;;14.02;100.00;98873.53;5139651;23;20684;-92
2022/10/28 01:42:52;;;;;;;14.40;6.50;;;;;;;14.00;100.00;98868.41;5164438;23;20578;-92
2022/10/28 01:45:01;;;;;;;9.50;5.80;;;;;;;14.02;100.00;98873.53;5139264;23;20582;-91
2022/10/28 01:47:10;;;;;;;11.43;6.90;;;;;;;14.02;100.00;98869.13;5138465;23;20593;-92
2022/10/28 01:49:19;;;;;;;8.40;6.30;;;;;;;14.02;100.00;98870.91;5139781;23;20985;-91
2022/10/28 01:51:25;;;;;;;12.27;6.63;;;;;;;14.03;100.00;98867.34;5139203;23;20579;-91
2022/10/28 01:53:31;;;;;;;10.30;6.03;;;;;;;14.00;100.00;98863.16;5138543;23;20595;-92
2022/10/28 01:55:38;;;;;;;11.43;6.30;;;;;;;13.97;100.00;98862.53;5163723;23;20619;-92
2022/10/28 01:57:42;;;;;;;10.63;6.10;;;;;;;13.94;100.00;98863.59;5138998;23;21377;-92
2022/10/28 01:59:47;;;;;;;8.90;6.70;;;;;;;13.92;100.00;98854.13;5164534;23;20700;-91
2022/10/28 02:01:50;;;;;;;9.67;5.77;;;;;;;13.90;100.00;98872.59;5163800;23;20661;-92
2022/10/28 02:03:55;;;;;;;11.13;6.80;;;;;;;13.91;100.00;98871.66;5138842;23;20575;-91
2022/10/28 02:06:00;;;;;;;8.97;6.00;;;;;;;13.91;99.40;98868.22;5190878;22;20589;-92
2022/10/28 02:08:10;;;;;;;12.20;6.00;;;;;;;13.89;99.56;98864.81;5138882;23;20614;-91
2022/10/28 02:10:16;;;;;;;7.97;6.00;;;;;;;13.87;100.00;98871.97;5164419;23;20566;-92
2022/10/28 02:12:25;;;;;;;14.17;6.20;;;;;;;13.85;99.58;98874.69;5139038;23;20579;-92
2022/10/28 02:14:40;;;;;;;11.53;6.70;;;;;;;13.84;99.67;98862.53;5164547;23;20579;-93
2022/10/28 02:16:49;;;;;;;11.17;6.37;;;;;;;13.83;99.76;98860.00;5138775;23;20925;-92
2022/10/28 02:19:00;;;;;;;19.73;6.40;;;;;;;13.79;99.45;98862.00;5139514;23;20582;-91
2022/10/28 02:21:05;;;;;;;9.90;6.13;;;;;;;13.76;98.49;98853.53;5139503;23;20583;-92
2022/10/28 02:23:17;;;;;;;16.13;6.93;;;;;;;13.78;98.85;98865.56;5138477;23;20592;-92
2022/10/28 02:25:23;;;;;;;10.50;6.50;;;;;;;13.77;99.53;98860.44;5163170;23;20566;-91
2022/10/28 02:27:33;;;;;;;7.50;5.57;;;;;;;13.78;100.00;98854.25;5138792;23;20570;-91
2022/10/28 02:29:41;;;;;;;10.57;5.40;;;;;;;13.73;98.92;98849.31;5164263;23;20610;-91
2022/10/28 02:31:47;;;;;;;15.00;6.33;;;;;;;13.72;99.78;98852.88;5138776;23;21156;-92
2022/10/28 02:33:52;;;;;;;8.70;5.63;;;;;;;13.70;99.19;98844.28;5139236;23;20691;-92
2022/10/28 02:36:02;;;;;;;8.70;6.33;;;;;;;13.69;99.20;98842.59;5138309;23;20591;-91
2022/10/28 02:38:09;;;;;;;13.67;5.90;;;;;;;13.71;99.55;98845.13;5137993;23;20575;-92
2022/10/28 02:40:14;;;;;;;11.30;6.03;;;;;;;13.69;99.53;98847.84;5164446;23;20656;-92
2022/10/28 02:42:21;;;;;;;12.57;6.10;;;;;;;13.71;99.64;98851.22;5189574;22;20573;-92
2022/10/28 02:44:27;;;;;;;13.50;6.30;;;;;;;13.70;100.00;98852.16;5164331;23;20637;-92
2022/10/28 02:46:32;;;;;;;13.10;6.43;;;;;;;13.69;99.00;98847.84;5139001;23;20602;-91
2022/10/28 02:48:39;;;;;;;10.80;6.83;;;;;;;13.67;99.60;98848.91;5138471;23;20602;-92
2022/10/28 02:50:46;;;;;;;9.20;6.37;;;;;;;13.64;99.68;98849.94;5139437;23;21122;-92
2022/10/28 02:52:55;;;;;;;15.13;6.77;;;;;;;13.64;98.64;98845.66;5190148;22;20910;-91
2022/10/28 02:54:59;;;;;;;7.83;6.20;;;;;;;13.61;98.43;98849.34;5163501;23;20560;-92
2022/10/28 02:57:05;;;;;;;12.07;7.90;;;;;;;13.58;98.67;98843.47;5163398;23;20570;-92
2022/10/28 02:59:11;;;;;;;11.23;6.40;;;;;;;13.57;99.46;98841.78;5138937;23;20572;-93
2022/10/28 03:01:14;;;;;;;7.87;5.97;;;;;;;13.56;99.16;98834.84;5138565;23;21273;-92
2022/10/28 03:03:17;;;;;;;9.07;6.10;;;;;;;13.57;99.73;98844.41;5138240;23;20608;-92
2022/10/28 03:05:21;;;;;;;10.83;6.30;;;;;;;13.58;99.74;98846.09;5138330;23;20616;-92
2022/10/28 03:07:24;;;;;;;14.27;7.10;;;;;;;13.55;99.89;98827.94;5163313;22;20581;-93
2022/10/28 03:09:28;;;;;;;13.40;6.67;;;;;;;13.57;99.86;98832.13;5138836;23;20603;-92
2022/10/28 03:11:31;;;;;;;15.90;6.17;;;;;;;13.55;99.79;98830.56;5163819;23;20590;-92
2022/10/28 03:13:34;;;;;;;14.30;6.13;;;;;;;13.55;100.00;98825.34;5163663;23;21129;-92
2022/10/28 03:15:37;;;;;;;13.63;6.17;;;;;;;13.55;99.79;98827.94;5138198;23;20990;-92
2022/10/28 03:17:40;;;;;;;9.37;5.70;;;;;;;13.53;99.50;98830.69;5163575;23;20578;-92
2022/10/28 03:19:43;;;;;;;12.53;7.10;;;;;;;13.55;100.00;98836.63;5138777;23;20607;-92
2022/10/28 03:21:46;;;;;;;14.00;6.73;;;;;;;13.56;100.00;98842.72;5163617;23;20621;-91
2022/10/28 03:23:49;;;;;;;12.20;6.20;;;;;;;13.57;100.00;98853.09;5163560;23;20632;-93
2022/10/28 03:25:54;;;;;;;18.80;6.73;;;;;;;13.58;100.00;98843.47;5163246;23;20572;-92
2022/10/28 03:27:57;;;;;;;18.60;7.37;;;;;;;13.61;100.00;98841.47;5139087;23;20602;-91
2022/10/28 03:30:00;;;;;;;13.97;6.50;;;;;;;13.60;100.00;98847.66;5163939;23;20583;-92
2022/10/28 03:32:03;;;;;;;12.13;6.17;;;;;;;13.61;100.00;98843.25;5162844;23;20585;-93
2022/10/28 03:34:06;;;;;;;8.87;5.80;;;;;;;13.60;100.00;98847.66;5163468;23;20580;-92
2022/10/28 03:36:09;;;;;;;11.20;6.90;;;;;;;13.61;100.00;98846.72;5137792;23;20678;-92
2022/10/28 03:38:12;;;;;;;8.80;6.00;;;;;;;13.63;100.00;98841.38;5137848;23;20568;-92
2022/10/28 03:40:15;;;;;;;9.03;6.20;;;;;;;13.61;100.00;98828.34;5137473;23;20719;-90
2022/10/28 03:42:20;;;;;;;7.43;5.40;;;;;;;13.62;100.00;98829.19;5138329;23;20674;-91
2022/10/28 03:44:23;;;;;;;9.90;5.80;;;;;;;13.63;100.00;98828.25;5138183;23;20579;-91
2022/10/28 03:46:26;;;;;;;9.83;5.67;;;;;;;13.62;100.00;98819.56;5137933;23;20634;-92
2022/10/28 03:48:33;;;;;;;11.93;5.67;;;;;;;13.63;100.00;98830.88;5138031;23;20657;-90
2022/10/28 03:50:36;;;;;;;8.77;6.10;;;;;;;13.63;100.00;98834.31;5138072;23;20683;-91
2022/10/28 03:52:39;;;;;;;10.23;5.83;;;;;;;13.64;100.00;98838.63;5163557;23;20593;-91
2022/10/28 03:54:42;;;;;;;14.63;5.37;;;;;;;13.64;100.00;98844.72;5136654;23;20579;-90
2022/10/28 03:56:45;;;;;;;13.00;5.77;;;;;;;13.66;100.00;98841.97;5189448;22;21113;-91
2022/10/28 03:58:50;;;;;;;9.93;5.70;;;;;;;13.67;100.00;98841.03;5138768;23;20576;-92
2022/10/28 04:00:53;;;;;;;8.87;5.43;;;;;;;13.67;100.00;98854.16;5138353;23;20619;-92
2022/10/28 04:02:57;;;;;;;7.90;5.80;;;;;;;13.69;100.00;98849.63;5138273;23;20578;-92
2022/10/28 04:05:00;;;;;;;10.50;6.37;;;;;;;13.69;100.00;98842.59;5137991;23;20606;-91
2022/10/28 04:07:03;;;;;;;14.53;6.37;;;;;;;13.70;100.00;98852.16;5162402;23;21144;-92
2022/10/28 04:09:06;;;;;;;9.40;6.07;;;;;;;13.73;100.00;98851.13;5163013;22;20603;-91
2022/10/28 04:11:09;;;;;;;9.77;6.27;;;;;;;13.75;100.00;98843.97;5163349;23;21106;-92
2022/10/28 04:13:13;;;;;;;11.00;6.43;;;;;;;13.77;100.00;98837.69;5190046;22;20672;-92
2022/10/28 04:15:17;;;;;;;10.43;6.40;;;;;;;13.80;100.00;98834.00;5162777;23;20558;-91
2022/10/28 04:17:20;;;;;;;12.30;5.27;;;;;;;13.83;100.00;98828.53;5138136;23;21241;-92
2022/10/28 04:19:23;;;;;;;15.63;6.60;;;;;;;13.83;100.00;98834.66;5137216;23;20577;-92
2022/10/28 04:21:26;;;;;;;11.40;6.60;;;;;;;13.85;100.00;98824.06;5162683;23;20615;-93
2022/10/28 04:23:29;;;;;;;11.13;6.27;;;;;;;13.88;100.00;98816.78;5137486;23;20571;-92
2022/10/28 04:25:32;;;;;;;13.67;6.60;;;;;;;13.87;100.00;98809.88;5137697;23;20586;-92
2022/10/28 04:27:35;;;;;;;12.33;6.83;;;;;;;13.86;99.60;98802.97;5137963;23;20594;-92
2022/10/28 04:29:38;;;;;;;10.70;6.93;;;;;;;13.82;100.00;98811.16;5138106;23;20987;-92
2022/10/28 04:31:43;;;;;;;8.60;6.50;;;;;;;13.81;100.00;98806.84;5138481;23;20666;-92
2022/10/28 04:33:50;;;;;;;14.03;5.90;;;;;;;13.82;100.00;98809.34;5137371;23;20563;-92
2022/10/28 04:35:53;;;;;;;13.40;7.20;;;;;;;13.82;100.00;98805.91;5162367;23;21094;-92
2022/10/28 04:37:56;;;;;;;9.20;6.80;;;;;;;13.85;100.00;98805.69;5163147;23;20655;-92
2022/10/28 04:39:59;;;;;;;14.53;6.83;;;;;;;13.85;100.00;98806.53;5137285;23;20677;-93
2022/10/28 04:42:02;;;;;;;13.00;7.70;;;;;;;13.86;100.00;98810.84;5163477;23;20711;-91
2022/10/28 04:44:05;;;;;;;11.37;7.60;;;;;;;13.88;100.00;98810.72;5163566;23;20570;-91
2022/10/28 04:46:09;;;;;;;11.33;7.30;;;;;;;13.86;100.00;98808.22;5189986;22;21104;-92
2022/10/28 04:48:13;;;;;;;15.83;6.37;;;;;;;13.86;100.00;98808.22;5162928;23;20632;-92
2022/10/28 04:50:16;;;;;;;12.83;6.67;;;;;;;13.87;100.00;98812.50;5137623;23;20571;-90
2022/10/28 04:52:19;;;;;;;13.40;7.40;;;;;;;13.85;100.00;98808.31;5137635;23;20609;-92
2022/10/28 04:54:23;;;;;;;9.10;6.17;;;;;;;13.84;100.00;98812.69;5162544;23;20581;-91
2022/10/28 04:56:26;;;;;;;15.97;7.60;;;;;;;13.86;100.00;98816.06;5189399;22;20558;-91
2022/10/28 04:58:29;;;;;;;15.50;7.60;;;;;;;13.86;100.00;98818.69;5163511;23;20597;-90
2022/10/28 05:00:32;;;;;;;12.53;7.77;;;;;;;13.88;100.00;98816.78;5162566;23;20583;-91
2022/10/28 05:02:35;;;;;;;17.17;7.57;;;;;;;13.89;100.00;98808.00;5139028;23;20587;-92
2022/10/28 05:04:39;;;;;;;9.87;7.07;;;;;;;13.90;100.00;98814.91;5187553;22;20660;-91
2022/10/28 05:06:42;;;;;;;13.67;7.13;;;;;;;13.90;100.00;98819.31;5137786;23;20592;-92
2022/10/28 05:08:45;;;;;;;11.77;6.57;;;;;;;13.91;100.00;98824.44;5162657;22;20610;-91
2022/10/28 05:10:49;;;;;;;13.40;7.40;;;;;;;13.92;100.00;98826.13;5189831;22;20906;-90
2022/10/28 05:12:52;;;;;;;11.00;6.83;;;;;;;13.95;100.00;98825.06;5190160;22;20581;-92
2022/10/28 05:14:56;;;;;;;12.70;7.13;;;;;;;13.94;100.00;98818.16;5162581;23;20547;-91
2022/10/28 05:16:59;;;;;;;10.40;6.33;;;;;;;13.96;100.00;98819.72;5162885;23;21074;-91
2022/10/28 05:19:02;;;;;;;10.50;6.87;;;;;;;13.96;100.00;98824.97;5164077;23;20613;-91
2022/10/28 05:21:06;;;;;;;15.27;6.87;;;;;;;13.96;100.00;98817.09;5164133;23;20593;-92
2022/10/28 05:23:09;;;;;;;15.17;6.83;;;;;;;13.96;100.00;98803.16;5137868;23;20649;-91
2022/10/28 05:25:12;;;;;;;14.13;6.90;;;;;;;13.96;100.00;98801.34;5138103;23;20578;-90
2022/10/28 05:27:15;;;;;;;11.00;7.00;;;;;;;13.96;100.00;98793.50;5138368;23;20630;-92
2022/10/28 05:29:19;;;;;;;11.00;6.80;;;;;;;13.98;100.00;98796.00;5139067;23;20576;-91
2022/10/28 05:31:22;;;;;;;10.20;6.53;;;;;;;13.97;100.00;98794.34;5161978;23;20603;-92
2022/10/28 05:33:25;;;;;;;12.70;6.60;;;;;;;13.98;100.00;98796.00;5140151;23;20581;-92
2022/10/28 05:35:31;;;;;;;9.67;6.20;;;;;;;13.97;100.00;98792.56;5139380;23;20633;-92
2022/10/28 05:37:35;;;;;;;13.73;7.23;;;;;;;13.98;100.00;98786.38;5163473;23;20550;-91
2022/10/28 05:39:38;;;;;;;11.30;7.57;;;;;;;14.00;100.00;98781.84;5138830;23;20629;-90
2022/10/28 05:41:41;;;;;;;11.87;6.87;;;;;;;14.00;100.00;98773.97;5163829;23;20611;-91
2022/10/28 05:43:44;;;;;;;11.80;6.67;;;;;;;14.02;100.00;98773.88;5139459;23;20584;-91
2022/10/28 05:45:52;;;;;;;12.90;6.50;;;;;;;14.01;100.00;98764.31;5190664;22;20558;-90
2022/10/28 05:47:55;;;;;;;15.90;6.30;;;;;;;14.01;100.00;98764.31;5162847;23;20600;-91
2022/10/28 05:49:59;;;;;;;15.23;7.23;;;;;;;14.01;100.00;98775.66;5139122;23;20580;-92
2022/10/28 05:52:02;;;;;;;14.50;6.50;;;;;;;14.01;100.00;98780.06;5138803;23;20610;-90
2022/10/28 05:54:06;;;;;;;10.97;6.43;;;;;;;14.02;100.00;98787.81;5162155;23;20657;-90
2022/10/28 05:56:09;;;;;;;13.47;6.73;;;;;;;14.03;100.00;98786.03;5137029;23;20585;-90
2022/10/28 05:58:12;;;;;;;19.40;7.80;;;;;;;14.02;100.00;98790.44;5163780;23;21146;-90
2022/10/28 06:00:17;;;;;;;15.23;8.70;;;;;;;14.02;100.00;98793.06;5163248;23;20653;-90
2022/10/28 06:02:20;;;;;;;17.80;6.90;;;;;;;14.02;100.00;98790.44;5163852;23;20982;-90
2022/10/28 06:04:23;;;;;;;11.13;6.13;;;;;;;14.02;100.00;98793.06;5163235;23;21023;-90
2022/10/28 06:06:27;;;;;;;12.10;6.97;;;;;;;14.02;100.00;98798.31;5190491;22;20616;-90
2022/10/28 06:08:30;;;;;;;10.37;5.80;;;;;;;14.03;100.00;98794.75;5163139;22;20607;-92
2022/10/28 06:10:35;;;;;;;14.77;6.60;;;;;;;14.02;100.00;98793.06;5139205;23;20617;-92
2022/10/28 06:12:38;;;;;;;12.57;5.97;;;;;;;14.05;100.00;98787.63;5164765;23;20898;-91
2022/10/28 06:14:41;;;;;;;12.90;6.50;;;;;;;14.05;100.00;98807.78;5162361;23;20691;-90
2022/10/28 06:16:45;;;;;;;10.97;5.80;;;;;;;14.05;100.00;98802.53;5163606;23;20572;-89
2022/10/28 06:18:49;;;;;;;9.03;6.33;;;;;;;14.06;100.00;98810.28;5161672;23;20581;-93
2022/10/28 06:20:53;;;;;;;13.07;6.33;;;;;;;14.05;100.00;98808.59;5138993;23;20611;-93
2022/10/28 06:22:57;;;;;;;9.70;6.03;;;;;;;14.07;100.00;98811.94;5164007;23;21019;-93
2022/10/28 06:25:00;;;;;;;8.00;6.13;;;;;;;14.07;100.00;98811.94;5139099;23;20590;-93
2022/10/28 06:27:04;;;;;;;11.97;6.17;;;;;;;14.07;100.00;98811.13;5165102;23;21224;-93
2022/10/28 06:29:10;;;;;;;13.23;6.50;;;;;;;14.07;100.00;98811.94;5164227;23;20589;-91
2022/10/28 06:31:13;;;;;;;14.20;6.83;;;;;;;14.08;100.00;98816.25;5140151;23;21122;-92
2022/10/28 06:33:16;;;;;;;14.00;7.63;;;;;;;14.08;100.00;98821.50;5139909;23;20575;-93
2022/10/28 06:35:19;;;;;;;11.73;6.73;;;;;;;14.09;100.00;98819.72;5191157;22;20634;-91
2022/10/28 06:37:22;;;;;;;11.70;5.87;;;;;;;14.09;100.00;98820.56;5137174;23;20581;-91
2022/10/28 06:39:25;;;;;;;10.37;6.00;;;;;;;14.09;100.00;98819.72;5139246;23;20585;-91
2022/10/28 06:41:29;;;;;;;20.30;9.30;;;;;;;14.10;100.00;98818.78;5163444;23;20605;-92
2022/10/28 06:43:34;;;;;;;51.53;29.07;;;;;;;14.10;100.00;98822.22;5164937;23;20574;-92
2022/10/28 06:45:37;;;;;;;29.27;16.07;;;;;;;14.12;100.00;98820.34;5164311;23;20586;-91
2022/10/28 06:47:40;;;;;;;20.60;11.77;;;;;;;14.13;100.00;98809.75;5164730;23;20590;-91
2022/10/28 06:49:43;;;;;;;14.67;7.90;;;;;;;14.13;100.00;98811.53;5139662;23;21037;-92
2022/10/28 06:51:46;;;;;;;16.83;9.73;;;;;;;14.14;100.00;98813.22;5139106;23;20587;-91
2022/10/28 06:53:50;;;;;;;16.63;8.37;;;;;;;14.15;100.00;98807.84;5164985;23;20919;-92
2022/10/28 06:55:53;;;;;;;17.90;8.60;;;;;;;14.19;100.00;98808.47;5139201;23;20634;-92
2022/10/28 06:57:59;;;;;;;15.10;8.43;;;;;;;14.22;100.00;98808.25;5164196;23;20720;-92
2022/10/28 07:00:04;;;;;;;14.80;8.40;;;;;;;14.26;100.00;98813.16;5162871;23;21198;-91
2022/10/28 07:02:09;;;;;;;13.37;7.50;;;;;;;14.27;100.00;98814.03;5163414;23;20613;-91
2022/10/28 07:04:13;;;;;;;22.30;9.70;;;;;;;14.31;100.00;98816.31;5189504;22;20876;-91
2022/10/28 07:06:16;;;;;;;14.50;8.43;;;;;;;14.35;100.00;98816.94;5159973;23;20634;-92
2022/10/28 07:08:20;;;;;;;11.77;7.63;;;;;;;14.36;100.00;98814.19;5189718;22;20637;-90
2022/10/28 07:10:23;;;;;;;12.10;7.60;;;;;;;14.40;100.00;98810.41;5162205;23;20578;-91
2022/10/28 07:12:26;;;;;;;14.20;8.20;;;;;;;14.43;100.00;98814.59;5161526;23;20582;-92
2022/10/28 07:14:30;;;;;;;11.00;7.20;;;;;;;14.51;100.00;98820.97;5137927;23;20578;-91
2022/10/28 07:16:35;;;;;;;16.00;7.87;;;;;;;14.56;100.00;98816.22;5189447;22;20582;-91
2022/10/28 07:18:38;;;;;;;19.13;7.63;;;;;;;14.60;100.00;98821.13;5164428;23;21122;-91
2022/10/28 07:20:41;;;;;;;13.37;7.67;;;;;;;14.69;100.00;98820.47;5163561;23;20587;-91
2022/10/28 07:22:44;;;;;;;9.87;6.70;;;;;;;14.76;100.00;98823.47;5164035;23;20605;-91
2022/10/28 07:24:47;;;;;;;13.30;7.30;;;;;;;14.83;100.00;98819.44;5139166;23;20582;-91
2022/10/28 07:26:50;;;;;;;11.83;7.20;;;;;;;14.90;100.00;98811.00;5138688;23;20647;-90
2022/10/28 07:28:58;;;;;;;11.83;6.87;;;;;;;14.96;100.00;98821.06;5164698;23;20593;-90
2022/10/28 07:31:02;;;;;;;12.10;6.70;;;;;;;15.01;100.00;98818.09;5163726;23;20618;-90
2022/10/28 07:33:06;;;;;;;15.20;6.60;;;;;;;15.04;100.00;98818.69;5191399;22;20561;-91
2022/10/28 07:35:09;;;;;;;12.43;7.40;;;;;;;15.08;100.00;98822.78;5191713;22;21141;-91
2022/10/28 07:37:12;;;;;;;15.47;8.40;;;;;;;15.14;100.00;98819.69;5164679;23;20577;-91
2022/10/28 07:39:16;;;;;;;12.27;6.67;;;;;;;15.20;100.00;98817.47;5139571;23;20937;-90
2022/10/28 07:41:20;;;;;;;13.63;8.27;;;;;;;15.29;100.00;98829.94;5190436;22;20565;-91
2022/10/28 07:43:23;;;;;;;12.33;7.00;;;;;;;15.36;100.00;98827.66;5164461;23;20714;-91
2022/10/28 07:45:26;;;;;;;13.60;9.27;;;;;;;15.44;100.00;98825.28;5135851;23;20577;-92
2022/10/28 07:47:29;;;;;;;16.50;7.50;;;;;;;15.53;100.00;98827.22;5160289;23;20582;-91
2022/10/28 07:49:34;;;;;;;10.20;7.23;;;;;;;15.60;100.00;98835.34;5158955;23;20605;-91
2022/10/28 07:51:37;;;;;;;10.17;6.53;;;;;;;15.67;100.00;98841.00;5159120;23;20583;-91
2022/10/28 07:53:40;;;;;;;15.83;6.90;;;;;;;15.73;100.00;98844.00;5162569;23;20986;-91
2022/10/28 07:55:43;;;;;;;14.77;6.57;;;;;;;15.82;100.00;98851.16;5137251;23;20576;-91
2022/10/28 07:57:46;;;;;;;10.77;7.50;;;;;;;15.90;100.00;98850.59;5163843;23;20637;-91
2022/10/28 07:59:49;;;;;;;12.67;6.90;;;;;;;15.97;100.00;98850.00;5163567;23;21177;-91
2022/10/28 08:01:53;;;;;;;11.77;6.70;;;;;;;16.02;100.00;98855.72;5137426;23;20642;-91
2022/10/28 08:03:57;;;;;;;9.47;6.80;;;;;;;16.01;100.00;98864.56;5137293;23;20621;-91
2022/10/28 08:06:02;;;;;;;14.03;7.30;;;;;;;16.05;99.44;98873.91;5137496;23;20663;-91
2022/10/28 08:08:05;;;;;;;10.63;7.20;;;;;;;16.12;99.40;98872.47;5163076;22;20600;-91
2022/10/28 08:10:09;;;;;;;11.20;6.90;;;;;;;16.16;99.20;98879.16;5162460;23;20579;-91
2022/10/28 08:12:13;;;;;;;11.50;7.27;;;;;;;16.19;99.37;98877.16;5137759;23;20580;-91
2022/10/28 08:14:16;;;;;;;13.20;8.10;;;;;;;16.21;100.00;98871.78;5188079;22;20585;-91
2022/10/28 08:16:20;;;;;;;12.07;7.63;;;;;;;16.22;100.00;98874.31;5161254;23;20582;-91
2022/10/28 08:18:23;;;;;;;16.90;8.03;;;;;;;16.22;98.00;98873.44;5136792;23;21024;-91
2022/10/28 08:20:26;;;;;;;9.60;7.07;;;;;;;16.26;98.67;98885.44;5191722;22;20763;-91
2022/10/28 08:22:30;;;;;;;13.17;6.80;;;;;;;16.28;99.67;98876.47;5192119;22;20579;-91
2022/10/28 08:24:34;;;;;;;11.50;7.50;;;;;;;16.32;100.00;98875.25;5187847;22;20615;-90
2022/10/28 08:26:39;;;;;;;11.80;6.93;;;;;;;16.34;100.00;98875.13;5159710;23;20571;-91
2022/10/28 08:28:43;;;;;;;10.67;7.20;;;;;;;16.39;99.33;98875.59;5162933;23;20581;-91
2022/10/28 08:30:47;;;;;;;12.00;6.77;;;;;;;16.42;100.00;98880.63;5165287;23;20606;-91
2022/10/28 08:33:09;;;;;;;10.13;6.33;;;;;;;16.47;99.35;98889.00;5164425;23;21229;-90
2022/10/28 08:35:12;;;;;;;13.70;6.73;;;;;;;16.49;99.68;98889.72;5163825;23;20965;-91
2022/10/28 08:37:16;;;;;;;10.60;6.77;;;;;;;16.52;100.00;98892.94;5139657;23;21134;-91
2022/10/28 08:39:20;;;;;;;17.60;7.60;;;;;;;16.53;98.96;98892.81;5164096;23;20576;-90
2022/10/28 08:41:30;;;;;;;13.53;7.70;;;;;;;16.55;98.18;98893.56;5139788;23;20686;-91
2022/10/28 08:43:49;;;;;;;20.60;8.47;;;;;;;16.55;98.91;98892.69;5190071;22;20615;-91
2022/10/28 08:46:02;;;;;;;12.27;8.00;;;;;;;16.61;99.40;98890.44;5163674;23;20629;-90
2022/10/28 08:48:12;;;;;;;15.90;7.73;;;;;;;16.68;99.49;98891.59;5191760;22;20621;-91
2022/10/28 08:50:18;;;;;;;15.80;8.10;;;;;;;16.68;98.04;98891.59;5163380;23;20647;-90
2022/10/28 08:52:26;;;;;;;15.30;8.50;;;;;;;16.70;99.06;98889.69;5164456;23;20560;-91
2022/10/28 08:54:35;;;;;;;12.77;8.03;;;;;;;16.78;98.40;98892.56;5193047;22;20558;-91
2022/10/28 08:56:44;;;;;;;16.47;8.17;;;;;;;16.83;99.51;98894.81;5140300;23;20587;-91
2022/10/28 08:58:50;;;;;;;18.00;8.50;;;;;;;16.86;99.02;98890.13;5140280;23;20568;-91
2022/10/28 09:00:55;;;;;;;12.43;8.33;;;;;;;16.90;99.85;98895.97;5163792;23;21118;-90
2022/10/28 09:03:14;;;;;;;10.63;8.03;;;;;;;16.99;100.00;98888.19;5137748;23;20950;-91
2022/10/28 09:05:20;;;;;;;14.00;7.87;;;;;;;17.04;99.44;98888.63;5164905;23;20560;-91
2022/10/28 09:07:24;;;;;;;16.30;8.50;;;;;;;17.07;99.69;98889.22;5165155;22;21183;-91
2022/10/28 09:09:27;;;;;;;14.73;8.03;;;;;;;17.09;99.61;98897.84;5164275;23;21129;-90
2022/10/28 09:11:49;;;;;;;14.03;9.77;;;;;;;17.16;99.98;98903.47;5139470;23;20657;-91
2022/10/28 09:14:05;;;;;;;11.37;8.27;;;;;;;17.23;99.47;98899.38;5138442;23;20606;-91
2022/10/28 09:16:15;;;;;;;11.47;8.90;;;;;;;17.30;99.82;98890.84;5192627;22;20605;-91
2022/10/28 09:18:21;;;;;;;13.37;7.93;;;;;;;17.42;99.96;98892.47;5167379;23;20581;-91
2022/10/28 09:20:29;;;;;;;9.47;6.70;;;;;;;17.58;99.28;98891.06;5193697;22;20557;-91
2022/10/28 09:22:41;;;;;;;14.07;6.90;;;;;;;17.73;99.61;98899.50;5141783;23;20561;-91
2022/10/28 09:24:48;;;;;;;11.30;7.40;;;;;;;17.81;99.24;98902.34;5166560;23;20614;-91
2022/10/28 09:26:57;;;;;;;11.33;8.60;;;;;;;17.82;98.93;98899.56;5166185;23;20580;-92
2022/10/28 09:29:08;;;;;;;14.10;9.17;;;;;;;17.86;98.86;98901.00;5165501;23;20576;-91
2022/10/28 09:31:16;;;;;;;17.77;9.33;;;;;;;17.87;99.14;98907.91;5165994;23;20578;-92
2022/10/28 09:33:46;;;;;;;15.10;8.30;;;;;;;17.91;99.48;98919.06;5192545;22;20609;-92
2022/10/28 09:35:49;;;;;;;20.93;9.80;;;;;;;17.93;99.42;98921.44;5140174;23;21226;-92
2022/10/28 09:37:57;;;;;;;16.43;8.03;;;;;;;17.98;98.99;98921.03;5191700;22;20552;-92
2022/10/28 09:40:05;;;;;;;13.63;8.80;;;;;;;18.01;99.82;98921.63;5165180;23;20647;-92